Strona główna
METAR-TAF:

METAR-TAF

Lotnisko :

Port lotniczy Denpasar

Denpasar, Indonezja

Szerokość geograficzna: 08-44-53S, Długość geograficzna: 115-10-03E, wysokość: 4 m

Aktualna obserwacja pogody

Raport powstał 48 minut temu, godzina 10:00 UTC
Wiatr 12 kt od południowy wschód
Temperatura 27°C
Wilgotność 79%
Ciśnienie 1011 hPa
Widzialność 10 km lub więcej
Mało chmury na wysokości 1700 ft

METAR: WADD 181000Z 13012KT 9999 FEW017 27/23 Q1011 NOSIG

czas: 17:48 (10:48 UTC)

Prognoza

Raport powstał 5 godziny i 48 minut temu, godzina 05:00 UTC
Prognoza ważna od 18 godzina 06 UTC do 19 godzina 06 UTC
Wiatr 13 kt od wschodnio-południowy wschód
Widzialność 10 km lub więcej
Rozproszone chmury na wysokości 1600 ft
Przejściowo
od 18 godzina 20 UTC do 19 godzina 00 UTC
Wiatr 3 kt z kierunków zmiennych

TAF: WADD 180500Z 1806/1906 11013KT 9999 SCT016 TEMPO 1820/1900 VRB03KT

Obserwacja i prognoza pogody dla ponad 4000 lotnisk (raport METAR i TAF).

Dostępne stacje oznaczono żółtymi i czerwonymi punktami na mapie.

Najedź kursorem aby zobaczyć nazwę stacji.

Kliknij aby zobaczyć obserwacje i prognozy pogody.

Aby zmienić mapę: kliknij na zielony przycisk z czarnym krzyżykiem, aby powiększyć; na zielony przycisk z myślnikiem, aby pomniejszyć; na zielone strzałki, aby przejść do map sąsiednich.


METAR-TAF: